Latest Weather Observations for Holmes Reef

IDQ60801

Issued at 2:32 am EST Wednesday 1 April 2015 (issued every 30 minutes, with the page automatically refreshed every 10 minutes)

About weather observations | Map of weather stations | Latest weather observations for QLD | Other Formats
Station Details ID: 200732 Name: HOLMES REEF Lat: -16.47 Lon: 147.87 Height: 1.9 m
Data from the previous 72 hours. | See also: Recent months at Holmes Reef
Date/Time
EST
Temp
°C
App
Temp
°C
Dew
Point
Rel
Hum
%
Delta-T
°C
Wind Press
QNH
hPa
Press
MSL
hPa
Rain
since 9 am
mm
Dir
 
Spd
km/h
Gust
km/h
Spd
kts
Gust
kts
01/02:30am 27.4 - - - - ESE 35 41 19 22 1011.9 - -
01/02:21am 27.4 - - - - ESE 37 37 20 20 1011.8 1011.6 -
01/02:00am 27.3 - - - - ESE 37 41 20 22 1011.9 - -
01/01:30am 27.5 - - - - ESE 37 43 20 23 1012.3 - -
01/01:21am 27.4 - - - - ESE 37 - 20 - - 1012.1 -
01/01:00am 27.6 - - - - ESE 35 41 19 22 1012.8 - -
01/12:30am 27.5 - - - - ESE 37 41 20 22 1013.2 - -
01/12:21am 27.6 - - - - ESE 35 - 19 - - 1013.0 -
01/12:00am 27.6 - - - - ESE 35 39 19 21 1013.6 - -
 
Date/Time
EST
Temp
°C
App
Temp
°C
Dew
Point
Rel
Hum
%
Delta-T
°C
Wind Press
QNH
hPa
Press
MSL
hPa
Rain
since 9 am
mm
Dir
 
Spd
km/h
Gust
km/h
Spd
kts
Gust
kts
31/11:30pm 27.7 - - - - ESE 35 41 19 22 1013.9 - -
31/11:21pm 27.7 - - - - ESE 32 - 17 - - 1013.6 -
31/11:00pm 27.7 - - - - ESE 33 39 18 21 1014.0 - -
31/10:30pm 27.7 - - - - ESE 33 37 18 20 1014.2 - -
31/10:21pm 27.7 - - - - ESE 33 - 18 - - 1013.8 -
31/10:00pm 27.8 - - - - ESE 33 35 18 19 1014.2 - -
31/09:30pm 27.8 - - - - ESE 32 37 17 20 1014.1 - -
31/09:21pm 27.8 - - - - ESE 33 - 18 - - 1013.8 -
31/09:00pm 27.8 - - - - ESE 32 37 17 20 1014.0 - -
31/08:30pm 27.8 - - - - ESE 32 35 17 19 1013.7 - -
31/08:21pm 27.7 - - - - ESE 32 - 17 - - 1013.3 -
31/08:00pm 27.8 - - - - ESE 30 33 16 18 1013.5 - -
31/07:30pm 27.8 - - - - ESE 33 37 18 20 1013.1 - -
31/07:21pm 27.7 - - - - ESE 32 - 17 - - 1012.7 -
31/07:00pm 27.6 - - - - ESE 35 39 19 21 1012.9 - -
31/06:30pm 27.6 - - - - ESE 35 39 19 21 1012.6 - -
31/06:21pm 27.6 - - - - ESE 35 - 19 - - 1012.2 -
31/06:00pm 27.6 - - - - ESE 35 39 19 21 1012.4 - -
31/05:30pm 27.8 - - - - ESE 32 37 17 20 1012.0 - -
31/05:21pm 27.8 - - - - ESE 33 - 18 - - 1011.7 -
31/05:00pm 27.8 - - - - ESE 33 39 18 21 1011.8 - -
31/04:30pm 27.8 - - - - ESE 33 37 18 20 1011.8 - -
31/04:21pm 27.6 - - - - ESE 33 - 18 - - 1011.5 -
31/04:00pm 27.7 - - - - ESE 32 39 17 21 1011.8 - -
31/03:30pm 27.6 - - - - SE 33 39 18 21 1011.9 - -
31/03:21pm 27.6 - - - - SE 30 - 16 - - 1011.5 -
31/03:00pm 27.5 - - - - SE 32 37 17 20 1011.9 - -
31/02:30pm 27.6 - - - - SE 32 37 17 20 1012.1 - -
31/02:21pm 27.6 - - - - SE 33 - 18 - - 1011.9 -
31/02:00pm 27.5 - - - - ESE 33 39 18 21 1012.5 - -
31/01:30pm 27.6 - - - - SE 35 39 19 21 1012.8 - -
31/01:21pm 27.6 - - - - ESE 35 - 19 - - 1012.6 -
31/01:00pm 27.1 - - - - SE 32 37 17 20 1013.3 - -
31/12:30pm 27.1 - - - - ESE 35 43 19 23 1013.8 - -
31/12:21pm 27.7 - - - - ESE 33 - 18 - - 1013.6 -
31/12:00pm 27.7 - - - - ESE 33 39 18 21 1014.1 - -
31/11:30am 27.8 - - - - ESE 30 35 16 19 1014.7 - -
31/11:21am 27.8 - - - - ESE 32 - 17 - - 1014.5 -
31/11:00am 27.8 - - - - ESE 33 39 18 21 1014.9 - -
31/10:30am 27.9 - - - - ESE 33 37 18 20 1015.2 - -
31/10:21am 27.8 - - - - ESE 32 - 17 - - 1014.9 -
31/10:00am 27.8 - - - - ESE 33 39 18 21 1015.2 - -
31/09:30am 27.8 - - - - E 33 37 18 20 1015.2 - -
31/09:21am 27.8 - - - - ESE 32 - 17 - - 1014.9 -
31/09:00am 27.8 - - - - ESE 33 39 18 21 1015.2 - -
31/08:30am 27.6 - - - - ESE 33 39 18 21 1015.1 - -
31/08:21am 27.6 - - - - ESE 33 - 18 - - 1014.7 -
31/08:00am 27.6 - - - - E 33 39 18 21 1014.8 - -
31/07:30am 27.6 - - - - ESE 37 43 20 23 1014.3 - -
31/07:21am 27.3 - - - - E 32 - 17 - - 1013.8 -
31/07:00am 25.9 - - - - E 43 48 23 26 1013.9 - -
31/06:57am 26.1 - - - - E 44 48 24 26 1013.8 - -
31/06:30am 27.5 - - - - ESE 39 44 21 24 1013.5 - -
31/06:21am 27.4 - - - - ESE 35 - 19 - - 1013.1 -
31/06:00am 27.4 - - - - ESE 37 43 20 23 1013.2 - -
31/05:30am 27.4 - - - - E 35 43 19 23 1013.0 - -
31/05:21am 27.4 - - - - E 37 - 20 - - 1012.6 -
31/05:00am 27.5 - - - - E 35 41 19 22 1012.8 - -
31/04:30am 27.3 - - - - E 33 41 18 22 1012.8 - -
31/04:21am 27.4 - - - - E 35 - 19 - - 1012.5 -
31/04:00am 27.2 - - - - ESE 32 39 17 21 1012.7 - -
31/03:30am 26.5 - - - - ESE 33 39 18 21 1012.8 - -
31/03:21am 26.5 - - - - ESE 32 - 17 - - 1012.5 -
31/03:00am 26.5 - - - - ESE 33 39 18 21 1013.0 - -
31/02:30am 26.3 - - - - ESE 37 43 20 23 1013.4 - -
31/02:21am 26.3 - - - - ESE 43 - 23 - - 1013.1 -
31/02:00am 27.2 - - - - ESE 39 43 21 23 1013.7 - -
31/01:30am 26.9 - - - - ESE 37 43 20 23 1014.1 - -
31/01:21am 27.0 - - - - ESE 37 - 20 - - 1013.9 -
31/01:00am 27.2 - - - - E 33 39 18 21 1014.5 - -
31/12:30am 27.3 - - - - E 41 48 22 26 1014.7 - -
31/12:20am 27.4 - - - - E 39 - 21 - - 1014.5 -
31/12:00am 27.4 - - - - E 39 43 21 23 1014.9 - -
 
Date/Time
EST
Temp
°C
App
Temp
°C
Dew
Point
Rel
Hum
%
Delta-T
°C
Wind Press
QNH
hPa
Press
MSL
hPa
Rain
since 9 am
mm
Dir
 
Spd
km/h
Gust
km/h
Spd
kts
Gust
kts
30/11:30pm 27.5 - - - - E 39 46 21 25 1015.0 - -
30/11:20pm 27.6 - - - - E 39 - 21 - - 1014.8 -
30/11:00pm 27.5 - - - - E 35 43 19 23 1015.3 - -
30/10:30pm 27.8 - - - - ESE 37 43 20 23 1015.4 - -
30/10:20pm 27.8 - - - - E 37 - 20 - - 1015.2 -
30/10:00pm 27.7 - - - - E 35 41 19 22 1015.7 - -
30/09:30pm 27.7 - - - - E 35 41 19 22 1015.7 - -
30/09:20pm 27.6 - - - - E 33 - 18 - - 1015.3 -
30/09:00pm 27.8 - - - - E 35 43 19 23 1015.6 - -
30/08:30pm 27.8 - - - - E 37 43 20 23 1015.3 - -
30/08:20pm 27.9 - - - - E 35 - 19 - - 1015.0 -
30/08:00pm 27.8 - - - - E 33 37 18 20 1015.0 - -
30/07:30pm 27.8 - - - - ESE 35 39 19 21 1014.8 - -
30/07:20pm 27.8 - - - - E 35 - 19 - - 1014.4 -
30/07:00pm 27.9 - - - - ESE 35 41 19 22 1014.6 - -
30/06:30pm 27.9 - - - - ESE 33 39 18 21 1014.3 - -
30/06:20pm 27.9 - - - - ESE 35 - 19 - - 1014.0 -
30/06:00pm 28.0 - - - - ESE 33 39 18 21 1014.1 - -
30/05:30pm 28.0 - - - - ESE 33 37 18 20 1013.8 - -
30/05:20pm 28.0 - - - - ESE 33 - 18 - - 1013.4 -
30/05:00pm 28.0 - - - - ESE 37 39 20 21 1013.6 - -
30/04:30pm 27.7 - - - - ESE 28 35 15 19 1013.4 - -
30/04:20pm 27.7 - - - - ESE 32 - 17 - - 1013.1 -
30/04:00pm 27.5 - - - - ESE 37 41 20 22 1013.2 - -
30/03:30pm 26.9 - - - - ESE 37 46 20 25 1013.0 - -
30/03:20pm 27.8 - - - - SE 33 - 18 - - 1012.8 -
30/03:00pm 27.8 - - - - ESE 26 32 14 17 1013.3 - -
30/02:30pm 28.0 - - - - ESE 32 37 17 20 1013.4 - -
30/02:20pm 28.0 - - - - ESE 30 - 16 - - 1013.1 -
30/02:00pm 27.9 - - - - ESE 30 35 16 19 1013.5 - -
30/01:30pm 28.1 - - - - ESE 32 37 17 20 1013.9 - -
30/01:20pm 28.0 - - - - ESE 32 - 17 - - 1013.6 -
30/01:00pm 27.8 - - - - ESE 30 33 16 18 1014.2 - -
30/12:30pm 27.8 - - - - ESE 35 41 19 22 1014.6 - -
30/12:20pm 28.0 - - - - ESE 33 - 18 - - 1014.4 -
30/12:00pm 27.4 - - - - ESE 35 44 19 24 1015.0 - -
30/11:30am 28.0 - - - - ESE 35 39 19 21 1015.4 - -
30/11:20am 28.0 - - - - ESE 33 - 18 - - 1015.3 -
30/11:00am 28.0 - - - - ESE 33 39 18 21 1015.9 - -
30/10:30am 27.9 - - - - ESE 35 39 19 21 1016.0 - -
30/10:20am 27.8 - - - - ESE 32 - 17 - - 1015.8 -
30/10:00am 27.8 - - - - ESE 32 37 17 20 1016.2 - -
30/09:30am 27.8 - - - - ESE 35 41 19 22 1016.1 - -
30/09:20am 27.8 - - - - ESE 37 - 20 - - 1015.8 -
30/09:00am 27.6 - - - - ESE 35 41 19 22 1016.0 - -
30/08:30am 27.6 - - - - ESE 35 41 19 22 1015.8 - -
30/08:20am 27.6 - - - - ESE 35 - 19 - - 1015.4 -
30/08:00am 27.6 - - - - ESE 37 41 20 22 1015.5 - -
30/07:30am 27.6 - - - - ESE 35 41 19 22 1015.1 - -
30/07:20am 27.6 - - - - ESE 39 - 21 - - 1014.7 -
30/07:00am 27.5 - - - - ESE 37 43 20 23 1014.9 - -
30/06:30am 27.4 - - - - ESE 39 43 21 23 1014.6 - -
30/06:20am 27.4 - - - - ESE 39 - 21 - - 1014.1 -
30/06:00am 27.5 - - - - ESE 39 46 21 25 1014.2 - -
30/05:30am 27.4 - - - - ESE 39 44 21 24 1013.9 - -
30/05:20am 27.5 - - - - ESE 41 - 22 - - 1013.4 -
30/05:00am 27.5 - - - - ESE 37 43 20 23 1013.5 - -
30/04:30am 27.5 - - - - ESE 41 46 22 25 1013.4 - -
30/04:20am 27.4 - - - - ESE 41 - 22 - - 1013.0 -
30/04:00am 27.3 - - - - ESE 39 48 21 26 1013.3 - -
30/03:30am 27.5 - - - - ESE 39 43 21 23 1013.1 - -
30/03:20am 27.5 - - - - ESE 39 - 21 - - 1012.9 -
30/03:00am 27.6 - - - - ESE 37 43 20 23 1013.3 - -
30/02:30am 27.6 - - - - ESE 37 43 20 23 1013.7 - -
30/02:20am 27.6 - - - - ESE 39 - 21 - - 1013.4 -
30/02:00am 27.6 - - - - ESE 41 46 22 25 1013.9 - -
30/01:30am 27.6 - - - - ESE 41 46 22 25 1014.3 - -
30/01:20am 27.4 - - - - SE 41 - 22 - - 1014.1 -
30/01:00am 26.7 - - - - SE 41 50 22 27 1014.6 - -
30/12:30am 27.6 - - - - ESE 37 43 20 23 1015.0 - -
30/12:20am 27.6 - - - - ESE 39 - 21 - - 1014.7 -
30/12:00am 27.5 - - - - ESE 39 44 21 24 1015.2 - -
 
Date/Time
EST
Temp
°C
App
Temp
°C
Dew
Point
Rel
Hum
%
Delta-T
°C
Wind Press
QNH
hPa
Press
MSL
hPa
Rain
since 9 am
mm
Dir
 
Spd
km/h
Gust
km/h
Spd
kts
Gust
kts
29/11:30pm 27.8 - - - - ESE 37 43 20 23 1015.5 - -
29/11:20pm 27.7 - - - - ESE 39 - 21 - - 1015.2 -
29/11:00pm 27.8 - - - - ESE 41 44 22 24 1015.6 - -
29/10:30pm 27.7 - - - - ESE 39 44 21 24 1015.7 - -
29/10:20pm 27.8 - - - - ESE 39 - 21 - - 1015.5 -
29/10:00pm 27.7 - - - - ESE 39 44 21 24 1015.7 - -
29/09:30pm 27.6 - - - - ESE 43 48 23 26 1015.6 - -
29/09:20pm 27.6 - - - - ESE 41 - 22 - - 1015.3 -
29/09:00pm 27.7 - - - - ESE 43 50 23 27 1015.6 - -
29/08:30pm 27.6 - - - - ESE 43 48 23 26 1015.5 - -
29/08:20pm 27.5 - - - - ESE 43 - 23 - - 1015.1 -
29/08:00pm 27.2 - - - - ESE 43 56 23 30 1015.2 - -
29/07:30pm 27.6 - - - - ESE 41 44 22 24 1014.9 - -
29/07:20pm 27.5 - - - - ESE 43 - 23 - - 1014.4 -
29/07:00pm 27.4 - - - - ESE 41 46 22 25 1014.6 - -
29/06:30pm 27.7 - - - - ESE 33 43 18 23 1014.2 - -
29/06:20pm 27.5 - - - - SE 35 - 19 - - 1013.8 -
29/06:00pm 27.4 - - - - ESE 33 43 18 23 1013.9 - -
29/05:30pm 27.6 - - - - ESE 35 41 19 22 1013.6 - -
29/05:20pm 27.4 - - - - ESE 37 - 20 - - 1013.2 -
29/05:00pm 27.5 - - - - SE 35 43 19 23 1013.4 - -
29/04:30pm 27.5 - - - - ESE 35 41 19 22 1013.2 - -
29/04:20pm 27.7 - - - - ESE 33 - 18 - - 1012.9 -
29/04:00pm 27.7 - - - - ESE 37 41 20 22 1012.9 - -
29/03:30pm 27.6 - - - - ESE 32 39 17 21 1013.0 - -
29/03:20pm 27.5 - - - - ESE 32 - 17 - - 1012.6 -
29/03:00pm 27.3 - - - - ESE 37 44 20 24 1013.0 - -
29/02:30pm 27.5 - - - - ESE 35 39 19 21 1013.1 - -
29/02:20pm 27.9 - - - - ESE 33 - 18 - - 1012.8 -
29/02:00pm 28.1 - - - - ESE 33 39 18 21 1013.4 - -
29/01:30pm 27.8 - - - - ESE 35 39 19 21 1013.7 - -
29/01:20pm 27.8 - - - - ESE 33 - 18 - - 1013.5 -
29/01:00pm 28.0 - - - - ESE 35 41 19 22 1014.0 - -
29/12:30pm 28.0 - - - - ESE 32 37 17 20 1014.5 - -
29/12:20pm 27.9 - - - - ESE 32 - 17 - - 1014.4 -
29/12:00pm 27.8 - - - - ESE 33 39 18 21 1014.9 - -
29/11:30am 28.0 - - - - ESE 35 41 19 22 1015.2 - -
29/11:20am 28.0 - - - - ESE 35 - 19 - - 1015.0 -
29/11:00am 28.0 - - - - ESE 33 43 18 23 1015.3 - -
29/10:30am 27.4 - - - - ESE 39 48 21 26 1015.5 - -
29/10:20am 28.0 - - - - ESE 39 - 21 - - 1015.3 -
29/10:00am 28.0 - - - - ESE 39 44 21 24 1015.7 - -
29/09:30am 27.9 - - - - ESE 37 43 20 23 1015.6 - -
29/09:20am 27.9 - - - - ESE 37 - 20 - - 1015.3 -
29/09:00am 27.8 - - - - ESE 37 44 20 24 1015.5 - -
29/08:30am 27.8 - - - - ESE 37 43 20 23 1015.3 - -
29/08:20am 27.8 - - - - ESE 35 - 19 - - 1014.9 -
29/08:00am 27.7 - - - - ESE 37 44 20 24 1015.0 - -
29/07:30am 27.7 - - - - ESE 37 43 20 23 1014.6 - -
29/07:20am 27.6 - - - - ESE 37 - 20 - - 1014.2 -
29/07:00am 27.6 - - - - ESE 39 43 21 23 1014.2 - -
29/06:30am 27.5 - - - - ESE 37 43 20 23 1013.8 - -
29/06:20am 27.6 - - - - ESE 39 - 21 - - 1013.4 -
29/06:00am 27.3 - - - - ESE 33 41 18 22 1013.4 - -
29/05:30am 26.5 - - - - ESE 33 39 18 21 1013.2 - -
29/05:20am 26.4 - - - - ESE 37 - 20 - - 1012.8 -
29/05:00am 26.1 - - - - ESE 41 52 22 28 1012.9 - -
29/04:30am 26.6 - - - - ESE 39 46 21 25 1012.7 - -
29/04:20am 26.7 - - - - ESE 37 - 20 - - 1012.4 -
29/04:00am 26.2 - - - - ESE 35 44 19 24 1012.6 - -
29/03:30am 24.9 - - - - ESE 41 48 22 26 1012.7 - -
29/03:20am 25.2 - - - - ESE 41 - 22 - - 1012.4 -
29/03:00am 24.7 - - - - ESE 41 48 22 26 1012.9 - -
29/02:41am 23.9 - - - - ESE 39 54 21 29 1013.1 - -

Other Formats:

Comma delimited format used in spreadsheet applications
http://www.bom.gov.au/fwo/IDQ60801/IDQ60801.94289.axf

JavaScript Object Notation format (JSON) in row-major order
http://www.bom.gov.au/fwo/IDQ60801/IDQ60801.94289.json